Home   Weather   Ireland   Limerick   Past weeks
Flag for Ireland

Past Weather in Limerick, Ireland — Yesterday and Last 2 Weeks

Currently: 55 °F. Passing clouds. (Weather station: Shannon Airport, Ireland). See more current weather

Past Weather in Limerick — Graph

°F

Limerick Temperature Yesterday

Maximum temperature yesterday: 82 °F (at 5:00 pm)
Minimum temperature yesterday: 52 °F (at 5:30 am)
Average temperature yesterday: 68 °F

High & Low Weather Summary for the Past Weeks

 TemperatureHumidityPressure
High82 °F (Aug 11, 5:00 pm)100% (Jul 29, 8:30 pm)30.45 "Hg (Jul 29, 8:30 pm)
Low48 °F (Aug 6, 3:00 am)31% (Aug 9, 6:00 pm)29.77 "Hg (Aug 2, 5:00 am)
Average62 °F79%30.15 "Hg
* Reported Jul 28 5:00 am — Aug 12 5:30 am, Limerick. Weather by CustomWeather, © 2022

Note: Actual official high and low records may vary slightly from our data, if they occured in-between our weather recording intervals... More about our weather records

Limerick Weather History for the Previous 24 Hours

Scroll right to see more
 ConditionsComfort  
Time TempWeatherWind HumidityBarometerVisibility
5:30 am
Fri, Aug 12
55 °FClear.3 mph94%30.12 "Hg10 mi
5:00 am57 °FClear.2 mph88%30.15 "Hg10 mi
4:30 am57 °FClear.3 mph88%30.15 "Hg10 mi
4:00 am57 °FClear.1 mph88%30.15 "Hg10 mi
3:30 am59 °FClear.3 mph88%30.15 "Hg10 mi
3:00 am59 °FClear.6 mph88%30.15 "Hg10 mi
2:30 am59 °FClear.5 mph88%30.15 "Hg10 mi
2:00 am61 °FClear.7 mph83%30.15 "Hg10 mi
12:30 am63 °FClear.5 mph77%30.15 "Hg10 mi
12:00 am63 °FClear.5 mph77%30.15 "Hg10 mi
11:30 pm
Thu, Aug 11
64 °FClear.6 mph73%30.15 "Hg10 mi
11:00 pm64 °FClear.6 mph73%30.15 "Hg10 mi
10:30 pm64 °FClear.7 mph78%30.15 "Hg10 mi
10:00 pm66 °FClear.6 mph68%30.15 "Hg10 mi
9:00 pm72 °FSunny.7 mph61%30.15 "Hg10 mi
8:30 pm75 °FSunny.7 mph54%30.15 "Hg10 mi
8:00 pm79 °FPassing clouds.9 mph51%30.12 "HgN/A
7:30 pm79 °FSunny.9 mph48%30.12 "Hg10 mi
7:00 pm81 °FSunny.10 mph45%30.12 "Hg10 mi
6:30 pm81 °FSunny.9 mph45%30.12 "Hg10 mi
6:00 pm81 °FPassing clouds.8 mph42%30.15 "HgN/A
5:30 pm81 °FPassing clouds.9 mph42%30.15 "HgN/A
5:00 pm82 °FPassing clouds.5 mph42%30.15 "HgN/A
4:30 pm81 °FPassing clouds.7 mph42%30.15 "HgN/A
4:00 pm81 °FPassing clouds.9 mph42%30.15 "HgN/A
3:30 pm81 °FPassing clouds.8 mph39%30.15 "HgN/A
2:00 pm79 °FPassing clouds.6 mph48%30.18 "HgN/A
1:30 pm77 °FPassing clouds.3 mph54%30.18 "HgN/A
1:00 pm75 °FSunny.5 mph57%30.18 "Hg10 mi
12:00 pm73 °FSunny.2 mph57%30.21 "Hg10 mi
11:30 am72 °FSunny.3 mph65%30.21 "Hg10 mi
11:00 am70 °FSunny.3 mph60%30.21 "Hg10 mi
10:30 am66 °FSunny.1 mph68%30.21 "Hg10 mi
10:00 am66 °FSunny.1 mph68%30.21 "Hg10 mi
9:30 am63 °FSunny.2 mph77%30.21 "Hg10 mi
9:00 am61 °FSunny.3 mph83%30.21 "Hg10 mi
8:00 am57 °FPassing clouds.1 mph94%30.21 "HgN/A
7:00 am54 °FFog.No wind94%30.21 "HgN/A
6:00 am52 °FFog.1 mph94%30.21 "HgN/A
Weather by CustomWeather, © 2022

See weather overview